パラオ の空港の天気 - METARとTAF

パラオ国際空港 ( PTRO / ROR ) - パラオ アイライ州
飛行場実況気象(Metar)
観測時間08/07 05:50 PWT (08/06 20:50 UTC)
風向・風速静穏 0m/s
視程10km以上
天気現象
全天の4割程度の雲 雲底高度 460m
全天の8割程度の雲 雲底高度 3350m
全天の8割程度の雲 雲底高度 8840m
気温24℃
湿度94%
気圧1009hPa
METARPTRO 062050Z 00000KT 14SM SCT015 BKN110 BKN290 24/23 A2980
過去の天気等 Google飛行場航空写真 Wunderground天気予報

過去48時間のMETAR

飛行場予報(TAF)
発表時間: 8/07 02:23 PWT (8/06 17:23 UTC)
予報対象時間: 7日3時 PWT ~ 8日3時 PWT
風向・風速西 4m/s
視程10km以上
天気現象周辺でしゅう雨
全天の4割程度の雲 雲底高度 490m
全天の8割程度の雲 雲底高度 3660m
PTRO 061723Z 0618/0718 26007KT P6SM VCSH SCT016 BKN120